Terminal Aerodrome Forecast
Issued by NWS Rapid City, SD

Home | Current Version | Previous Version | Graphics & Text | Print | Product List | Glossary On
Versions: 1 2 3 4 5 6 7 8 9 10 11 12 13 14 15 16 17 18 19 20 21 22 23 24 25 26 27
000
FTUS43 KUNR 041720
TAFRAP
TAF
KRAP 041720Z 0418/0518 10009KT 6SM -SHRA OVC060
     FM042000 14016KT 6SM -SHRA BKN040 OVC060
     FM050000 14011KT P6SM BKN050
     FM050600 16007KT P6SM SCT050=

USA.gov is the U.S. government's official web portal to all federal, state and local government web resources and services.